sensor_id;sensor_type;location;lat;lon;timestamp;P1;durP1;ratioP1;P2;durP2;ratioP2
68583;SDS011;55557;49.220;11.150;2022-12-26T00:01:27;3.43;;;2.50;;
68583;SDS011;55557;49.220;11.150;2022-12-26T00:03:54;2.80;;;2.20;;
68583;SDS011;55557;49.220;11.150;2022-12-26T00:06:21;4.27;;;2.00;;
68583;SDS011;55557;49.220;11.150;2022-12-26T00:08:47;1.80;;;1.63;;
68583;SDS011;55557;49.220;11.150;2022-12-26T00:11:14;3.30;;;2.47;;
68583;SDS011;55557;49.220;11.150;2022-12-26T00:13:40;6.30;;;2.63;;
68583;SDS011;55557;49.220;11.150;2022-12-26T00:16:16;3.23;;;2.40;;
68583;SDS011;55557;49.220;11.150;2022-12-26T00:18:43;3.30;;;2.90;;
68583;SDS011;55557;49.220;11.150;2022-12-26T00:21:10;5.87;;;3.37;;
68583;SDS011;55557;49.220;11.150;2022-12-26T00:23:37;5.40;;;2.37;;
68583;SDS011;55557;49.220;11.150;2022-12-26T00:26:03;3.90;;;2.60;;
68583;SDS011;55557;49.220;11.150;2022-12-26T00:28:30;4.57;;;3.20;;
68583;SDS011;55557;49.220;11.150;2022-12-26T00:30:56;5.13;;;3.03;;
68583;SDS011;55557;49.220;11.150;2022-12-26T00:33:22;4.10;;;3.10;;
68583;SDS011;55557;49.220;11.150;2022-12-26T00:35:48;5.33;;;3.50;;
68583;SDS011;55557;49.220;11.150;2022-12-26T00:38:14;4.90;;;3.50;;
68583;SDS011;55557;49.220;11.150;2022-12-26T00:40:40;4.83;;;3.33;;
68583;SDS011;55557;49.220;11.150;2022-12-26T00:43:08;5.73;;;3.70;;
68583;SDS011;55557;49.220;11.150;2022-12-26T00:45:35;5.47;;;3.87;;
68583;SDS011;55557;49.220;11.150;2022-12-26T00:48:01;4.40;;;3.40;;
68583;SDS011;55557;49.220;11.150;2022-12-26T00:50:27;4.50;;;3.10;;
68583;SDS011;55557;49.220;11.150;2022-12-26T00:52:53;6.80;;;3.10;;
68583;SDS011;55557;49.220;11.150;2022-12-26T00:55:21;4.60;;;2.90;;
68583;SDS011;55557;49.220;11.150;2022-12-26T00:57:49;4.83;;;3.00;;
68583;SDS011;55557;49.220;11.150;2022-12-26T01:00:15;4.40;;;3.03;;
68583;SDS011;55557;49.220;11.150;2022-12-26T01:02:41;4.77;;;3.57;;
68583;SDS011;55557;49.220;11.150;2022-12-26T01:05:08;6.80;;;3.80;;
68583;SDS011;55557;49.220;11.150;2022-12-26T01:07:35;4.03;;;2.97;;
68583;SDS011;55557;49.220;11.150;2022-12-26T01:10:02;4.07;;;3.00;;
68583;SDS011;55557;49.220;11.150;2022-12-26T01:12:28;4.13;;;2.90;;
68583;SDS011;55557;49.220;11.150;2022-12-26T01:14:55;3.03;;;2.73;;
68583;SDS011;55557;49.220;11.150;2022-12-26T01:17:22;3.97;;;3.23;;
68583;SDS011;55557;49.220;11.150;2022-12-26T01:19:48;3.40;;;2.43;;
68583;SDS011;55557;49.220;11.150;2022-12-26T01:22:14;4.77;;;2.93;;
68583;SDS011;55557;49.220;11.150;2022-12-26T01:24:40;5.77;;;3.80;;
68583;SDS011;55557;49.220;11.150;2022-12-26T01:27:06;9.20;;;3.23;;
68583;SDS011;55557;49.220;11.150;2022-12-26T01:29:32;5.53;;;3.07;;
68583;SDS011;55557;49.220;11.150;2022-12-26T01:31:58;5.93;;;3.17;;
68583;SDS011;55557;49.220;11.150;2022-12-26T01:34:24;4.30;;;3.53;;
68583;SDS011;55557;49.220;11.150;2022-12-26T01:36:51;3.77;;;2.83;;
68583;SDS011;55557;49.220;11.150;2022-12-26T01:39:17;4.33;;;3.33;;
68583;SDS011;55557;49.220;11.150;2022-12-26T01:41:43;8.37;;;3.17;;
68583;SDS011;55557;49.220;11.150;2022-12-26T01:46:54;3.87;;;3.00;;
68583;SDS011;55557;49.220;11.150;2022-12-26T01:49:29;4.23;;;2.90;;
68583;SDS011;55557;49.220;11.150;2022-12-26T01:51:58;4.83;;;3.63;;
68583;SDS011;55557;49.220;11.150;2022-12-26T01:54:26;4.20;;;2.73;;
68583;SDS011;55557;49.220;11.150;2022-12-26T01:56:55;4.00;;;2.97;;
68583;SDS011;55557;49.220;11.150;2022-12-26T01:59:23;4.57;;;3.07;;
68583;SDS011;55557;49.220;11.150;2022-12-26T02:01:51;3.73;;;2.63;;
68583;SDS011;55557;49.220;11.150;2022-12-26T02:04:19;3.77;;;2.93;;
68583;SDS011;55557;49.220;11.150;2022-12-26T02:07:05;5.43;;;2.87;;
68583;SDS011;55557;49.220;11.150;2022-12-26T02:09:32;3.13;;;2.67;;
68583;SDS011;55557;49.220;11.150;2022-12-26T02:12:05;2.43;;;2.13;;
68583;SDS011;55557;49.220;11.150;2022-12-26T02:14:32;2.47;;;2.10;;
68583;SDS011;55557;49.220;11.150;2022-12-26T02:16:59;5.20;;;2.90;;
68583;SDS011;55557;49.220;11.150;2022-12-26T02:21:56;2.93;;;2.60;;
68583;SDS011;55557;49.220;11.150;2022-12-26T02:37:26;3.63;;;2.87;;
68583;SDS011;55557;49.220;11.150;2022-12-26T02:42:27;3.47;;;2.63;;
68583;SDS011;55557;49.220;11.150;2022-12-26T02:47:53;2.70;;;2.20;;
68583;SDS011;55557;49.220;11.150;2022-12-26T02:53:29;6.47;;;2.90;;
68583;SDS011;55557;49.220;11.150;2022-12-26T02:56:27;3.33;;;2.57;;
68583;SDS011;55557;49.220;11.150;2022-12-26T02:59:18;4.70;;;3.10;;
68583;SDS011;55557;49.220;11.150;2022-12-26T03:02:09;5.53;;;3.70;;
68583;SDS011;55557;49.220;11.150;2022-12-26T03:05:01;5.03;;;3.40;;
68583;SDS011;55557;49.220;11.150;2022-12-26T03:07:54;3.80;;;2.80;;
68583;SDS011;55557;49.220;11.150;2022-12-26T03:10:39;3.80;;;2.70;;
68583;SDS011;55557;49.220;11.150;2022-12-26T03:13:29;3.00;;;2.67;;
68583;SDS011;55557;49.220;11.150;2022-12-26T03:16:02;4.57;;;2.70;;
68583;SDS011;55557;49.220;11.150;2022-12-26T03:18:51;2.87;;;2.17;;
68583;SDS011;55557;49.220;11.150;2022-12-26T03:21:19;4.67;;;2.47;;
68583;SDS011;55557;49.220;11.150;2022-12-26T03:23:46;3.33;;;2.57;;
68583;SDS011;55557;49.220;11.150;2022-12-26T03:26:14;2.60;;;2.00;;
68583;SDS011;55557;49.220;11.150;2022-12-26T03:29:00;3.10;;;2.47;;
68583;SDS011;55557;49.220;11.150;2022-12-26T03:31:45;3.77;;;2.37;;
68583;SDS011;55557;49.220;11.150;2022-12-26T03:34:11;2.60;;;2.00;;
68583;SDS011;55557;49.220;11.150;2022-12-26T03:42:12;2.43;;;2.20;;
68583;SDS011;55557;49.220;11.150;2022-12-26T03:45:18;2.20;;;2.00;;
68583;SDS011;55557;49.220;11.150;2022-12-26T03:50:53;2.70;;;2.20;;
68583;SDS011;55557;49.220;11.150;2022-12-26T03:53:44;2.70;;;2.00;;
68583;SDS011;55557;49.220;11.150;2022-12-26T03:56:54;3.57;;;2.20;;
68583;SDS011;55557;49.220;11.150;2022-12-26T04:02:28;2.70;;;2.07;;
68583;SDS011;55557;49.220;11.150;2022-12-26T04:05:14;2.83;;;2.20;;
68583;SDS011;55557;49.220;11.150;2022-12-26T04:08:00;3.23;;;2.17;;
68583;SDS011;55557;49.220;11.150;2022-12-26T04:10:47;3.10;;;1.80;;
68583;SDS011;55557;49.220;11.150;2022-12-26T04:16:39;2.47;;;1.73;;
68583;SDS011;55557;49.220;11.150;2022-12-26T04:22:14;2.67;;;1.77;;
68583;SDS011;55557;49.220;11.150;2022-12-26T04:25:05;2.87;;;1.93;;
68583;SDS011;55557;49.220;11.150;2022-12-26T04:27:51;4.17;;;2.20;;
68583;SDS011;55557;49.220;11.150;2022-12-26T04:30:37;2.97;;;2.20;;
68583;SDS011;55557;49.220;11.150;2022-12-26T04:33:26;3.30;;;2.43;;
68583;SDS011;55557;49.220;11.150;2022-12-26T04:36:17;2.60;;;1.90;;
68583;SDS011;55557;49.220;11.150;2022-12-26T04:39:04;2.37;;;2.00;;
68583;SDS011;55557;49.220;11.150;2022-12-26T04:41:50;2.73;;;2.10;;
68583;SDS011;55557;49.220;11.150;2022-12-26T04:44:35;3.37;;;2.10;;
68583;SDS011;55557;49.220;11.150;2022-12-26T04:47:02;2.93;;;1.80;;
68583;SDS011;55557;49.220;11.150;2022-12-26T04:49:28;1.90;;;1.67;;
68583;SDS011;55557;49.220;11.150;2022-12-26T04:52:13;2.93;;;2.20;;
68583;SDS011;55557;49.220;11.150;2022-12-26T04:54:40;1.70;;;1.60;;
68583;SDS011;55557;49.220;11.150;2022-12-26T04:57:06;2.40;;;1.90;;
68583;SDS011;55557;49.220;11.150;2022-12-26T04:59:32;2.23;;;1.77;;
68583;SDS011;55557;49.220;11.150;2022-12-26T05:01:58;1.80;;;1.70;;
68583;SDS011;55557;49.220;11.150;2022-12-26T05:04:43;3.73;;;2.23;;
68583;SDS011;55557;49.220;11.150;2022-12-26T05:07:32;3.33;;;2.33;;
68583;SDS011;55557;49.220;11.150;2022-12-26T05:10:18;2.47;;;1.93;;
68583;SDS011;55557;49.220;11.150;2022-12-26T05:12:44;2.50;;;2.10;;
68583;SDS011;55557;49.220;11.150;2022-12-26T05:15:11;2.90;;;1.90;;
68583;SDS011;55557;49.220;11.150;2022-12-26T05:17:37;4.33;;;2.20;;
68583;SDS011;55557;49.220;11.150;2022-12-26T05:20:21;2.07;;;1.70;;
68583;SDS011;55557;49.220;11.150;2022-12-26T05:23:15;3.50;;;2.10;;
68583;SDS011;55557;49.220;11.150;2022-12-26T05:26:00;2.40;;;2.00;;
68583;SDS011;55557;49.220;11.150;2022-12-26T05:28:45;2.37;;;1.93;;
68583;SDS011;55557;49.220;11.150;2022-12-26T05:31:15;3.13;;;2.27;;
68583;SDS011;55557;49.220;11.150;2022-12-26T05:33:41;2.40;;;2.20;;
68583;SDS011;55557;49.220;11.150;2022-12-26T05:36:27;4.07;;;2.33;;
68583;SDS011;55557;49.220;11.150;2022-12-26T05:38:55;8.17;;;2.40;;
68583;SDS011;55557;49.220;11.150;2022-12-26T05:41:21;3.20;;;2.37;;
68583;SDS011;55557;49.220;11.150;2022-12-26T05:43:47;2.27;;;1.80;;
68583;SDS011;55557;49.220;11.150;2022-12-26T05:46:13;3.23;;;2.17;;
68583;SDS011;55557;49.220;11.150;2022-12-26T05:48:39;2.30;;;2.10;;
68583;SDS011;55557;49.220;11.150;2022-12-26T05:51:06;2.30;;;2.10;;
68583;SDS011;55557;49.220;11.150;2022-12-26T05:53:32;3.10;;;2.20;;
68583;SDS011;55557;49.220;11.150;2022-12-26T05:56:02;2.47;;;2.10;;
68583;SDS011;55557;49.220;11.150;2022-12-26T05:58:28;2.20;;;1.83;;
68583;SDS011;55557;49.220;11.150;2022-12-26T06:01:02;6.73;;;2.70;;
68583;SDS011;55557;49.220;11.150;2022-12-26T06:03:28;3.13;;;2.20;;
68583;SDS011;55557;49.220;11.150;2022-12-26T06:05:55;2.27;;;1.93;;
68583;SDS011;55557;49.220;11.150;2022-12-26T06:08:21;4.60;;;2.70;;
68583;SDS011;55557;49.220;11.150;2022-12-26T06:10:47;3.53;;;2.43;;
68583;SDS011;55557;49.220;11.150;2022-12-26T06:13:13;4.87;;;2.80;;
68583;SDS011;55557;49.220;11.150;2022-12-26T06:15:39;2.57;;;2.00;;
68583;SDS011;55557;49.220;11.150;2022-12-26T06:18:06;2.50;;;2.13;;
68583;SDS011;55557;49.220;11.150;2022-12-26T06:20:32;3.93;;;2.47;;
68583;SDS011;55557;49.220;11.150;2022-12-26T06:22:58;2.30;;;1.87;;
68583;SDS011;55557;49.220;11.150;2022-12-26T06:25:24;4.83;;;2.83;;
68583;SDS011;55557;49.220;11.150;2022-12-26T06:27:50;2.50;;;2.07;;
68583;SDS011;55557;49.220;11.150;2022-12-26T06:30:16;3.20;;;2.07;;
68583;SDS011;55557;49.220;11.150;2022-12-26T06:32:42;2.47;;;1.87;;
68583;SDS011;55557;49.220;11.150;2022-12-26T06:35:08;3.13;;;2.03;;
68583;SDS011;55557;49.220;11.150;2022-12-26T06:37:37;5.13;;;1.90;;
68583;SDS011;55557;49.220;11.150;2022-12-26T06:40:03;3.60;;;1.98;;
68583;SDS011;55557;49.220;11.150;2022-12-26T06:42:30;2.83;;;1.90;;
68583;SDS011;55557;49.220;11.150;2022-12-26T06:44:56;2.47;;;1.90;;
68583;SDS011;55557;49.220;11.150;2022-12-26T06:47:22;1.60;;;1.50;;
68583;SDS011;55557;49.220;11.150;2022-12-26T06:49:48;3.00;;;1.90;;
68583;SDS011;55557;49.220;11.150;2022-12-26T06:52:14;2.00;;;1.80;;
68583;SDS011;55557;49.220;11.150;2022-12-26T06:54:40;3.43;;;1.73;;
68583;SDS011;55557;49.220;11.150;2022-12-26T06:57:06;3.67;;;1.97;;
68583;SDS011;55557;49.220;11.150;2022-12-26T06:59:32;3.03;;;1.70;;
68583;SDS011;55557;49.220;11.150;2022-12-26T07:01:58;4.50;;;2.10;;
68583;SDS011;55557;49.220;11.150;2022-12-26T07:04:24;2.57;;;2.23;;
68583;SDS011;55557;49.220;11.150;2022-12-26T07:06:50;2.80;;;2.13;;
68583;SDS011;55557;49.220;11.150;2022-12-26T07:09:17;3.83;;;1.80;;
68583;SDS011;55557;49.220;11.150;2022-12-26T07:11:44;2.47;;;2.00;;
68583;SDS011;55557;49.220;11.150;2022-12-26T07:14:11;2.90;;;1.93;;
68583;SDS011;55557;49.220;11.150;2022-12-26T07:16:38;1.93;;;1.70;;
68583;SDS011;55557;49.220;11.150;2022-12-26T07:19:05;2.00;;;1.57;;
68583;SDS011;55557;49.220;11.150;2022-12-26T07:21:31;3.53;;;1.70;;
68583;SDS011;55557;49.220;11.150;2022-12-26T07:23:57;6.30;;;1.77;;
68583;SDS011;55557;49.220;11.150;2022-12-26T07:26:23;4.57;;;2.00;;
68583;SDS011;55557;49.220;11.150;2022-12-26T07:28:53;2.63;;;1.80;;
68583;SDS011;55557;49.220;11.150;2022-12-26T07:31:20;2.70;;;1.80;;
68583;SDS011;55557;49.220;11.150;2022-12-26T07:33:47;3.17;;;2.37;;
68583;SDS011;55557;49.220;11.150;2022-12-26T07:36:13;4.17;;;2.20;;
68583;SDS011;55557;49.220;11.150;2022-12-26T07:38:39;2.47;;;1.80;;
68583;SDS011;55557;49.220;11.150;2022-12-26T07:41:05;2.63;;;1.90;;
68583;SDS011;55557;49.220;11.150;2022-12-26T07:43:50;5.87;;;4.60;;
68583;SDS011;55557;49.220;11.150;2022-12-26T07:46:16;6.10;;;5.50;;
68583;SDS011;55557;49.220;11.150;2022-12-26T07:48:42;3.43;;;2.17;;
68583;SDS011;55557;49.220;11.150;2022-12-26T07:51:08;3.17;;;1.90;;
68583;SDS011;55557;49.220;11.150;2022-12-26T07:53:34;3.20;;;1.70;;
68583;SDS011;55557;49.220;11.150;2022-12-26T07:56:00;3.10;;;2.37;;
68583;SDS011;55557;49.220;11.150;2022-12-26T07:58:26;2.50;;;2.20;;
68583;SDS011;55557;49.220;11.150;2022-12-26T08:00:52;2.53;;;1.93;;
68583;SDS011;55557;49.220;11.150;2022-12-26T08:03:18;2.97;;;2.20;;
68583;SDS011;55557;49.220;11.150;2022-12-26T08:05:45;2.67;;;2.17;;
68583;SDS011;55557;49.220;11.150;2022-12-26T08:08:11;3.17;;;2.60;;
68583;SDS011;55557;49.220;11.150;2022-12-26T08:10:37;7.83;;;4.53;;
68583;SDS011;55557;49.220;11.150;2022-12-26T08:13:03;10.70;;;5.50;;
68583;SDS011;55557;49.220;11.150;2022-12-26T08:15:29;8.63;;;5.00;;
68583;SDS011;55557;49.220;11.150;2022-12-26T08:17:55;13.20;;;4.37;;
68583;SDS011;55557;49.220;11.150;2022-12-26T08:20:21;5.77;;;4.40;;
68583;SDS011;55557;49.220;11.150;2022-12-26T08:22:47;3.47;;;2.50;;
68583;SDS011;55557;49.220;11.150;2022-12-26T08:25:13;4.77;;;3.27;;
68583;SDS011;55557;49.220;11.150;2022-12-26T08:27:39;6.07;;;4.03;;
68583;SDS011;55557;49.220;11.150;2022-12-26T08:30:05;5.73;;;3.43;;
68583;SDS011;55557;49.220;11.150;2022-12-26T08:32:32;8.50;;;4.57;;
68583;SDS011;55557;49.220;11.150;2022-12-26T08:34:58;7.50;;;3.83;;
68583;SDS011;55557;49.220;11.150;2022-12-26T08:37:24;10.07;;;4.37;;
68583;SDS011;55557;49.220;11.150;2022-12-26T08:39:51;6.10;;;3.97;;
68583;SDS011;55557;49.220;11.150;2022-12-26T08:42:18;5.83;;;3.77;;
68583;SDS011;55557;49.220;11.150;2022-12-26T08:44:44;2.73;;;2.30;;
68583;SDS011;55557;49.220;11.150;2022-12-26T08:47:10;2.87;;;2.13;;
68583;SDS011;55557;49.220;11.150;2022-12-26T08:49:36;5.33;;;3.23;;
68583;SDS011;55557;49.220;11.150;2022-12-26T08:52:02;4.13;;;2.50;;
68583;SDS011;55557;49.220;11.150;2022-12-26T08:54:29;2.67;;;2.40;;
68583;SDS011;55557;49.220;11.150;2022-12-26T08:56:55;5.93;;;3.47;;
68583;SDS011;55557;49.220;11.150;2022-12-26T08:59:21;9.63;;;5.13;;
68583;SDS011;55557;49.220;11.150;2022-12-26T09:01:47;11.17;;;5.13;;
68583;SDS011;55557;49.220;11.150;2022-12-26T09:04:13;7.00;;;4.03;;
68583;SDS011;55557;49.220;11.150;2022-12-26T09:06:39;7.67;;;4.77;;
68583;SDS011;55557;49.220;11.150;2022-12-26T09:09:06;7.80;;;3.73;;
68583;SDS011;55557;49.220;11.150;2022-12-26T09:11:32;4.03;;;3.07;;
68583;SDS011;55557;49.220;11.150;2022-12-26T09:13:59;6.13;;;3.60;;
68583;SDS011;55557;49.220;11.150;2022-12-26T09:16:26;10.07;;;3.30;;
68583;SDS011;55557;49.220;11.150;2022-12-26T09:18:57;7.73;;;4.83;;
68583;SDS011;55557;49.220;11.150;2022-12-26T09:21:23;6.97;;;3.90;;
68583;SDS011;55557;49.220;11.150;2022-12-26T09:23:49;15.23;;;6.70;;
68583;SDS011;55557;49.220;11.150;2022-12-26T09:26:16;10.63;;;5.70;;
68583;SDS011;55557;49.220;11.150;2022-12-26T09:28:43;9.63;;;5.50;;
68583;SDS011;55557;49.220;11.150;2022-12-26T09:31:11;7.20;;;4.87;;
68583;SDS011;55557;49.220;11.150;2022-12-26T09:33:38;4.30;;;3.10;;
68583;SDS011;55557;49.220;11.150;2022-12-26T09:36:08;8.57;;;3.23;;
68583;SDS011;55557;49.220;11.150;2022-12-26T09:38:34;4.53;;;3.30;;
68583;SDS011;55557;49.220;11.150;2022-12-26T09:41:05;6.63;;;3.73;;
68583;SDS011;55557;49.220;11.150;2022-12-26T09:46:08;5.53;;;3.67;;
68583;SDS011;55557;49.220;11.150;2022-12-26T09:48:56;4.60;;;3.47;;
68583;SDS011;55557;49.220;11.150;2022-12-26T09:51:24;4.00;;;2.73;;
68583;SDS011;55557;49.220;11.150;2022-12-26T09:53:50;6.10;;;3.90;;
68583;SDS011;55557;49.220;11.150;2022-12-26T09:56:17;7.60;;;4.40;;
68583;SDS011;55557;49.220;11.150;2022-12-26T10:03:40;7.03;;;4.20;;
68583;SDS011;55557;49.220;11.150;2022-12-26T10:06:20;4.40;;;3.33;;
68583;SDS011;55557;49.220;11.150;2022-12-26T10:24:55;8.27;;;4.67;;
68583;SDS011;55557;49.220;11.150;2022-12-26T10:27:22;6.20;;;4.57;;
68583;SDS011;55557;49.220;11.150;2022-12-26T10:29:57;7.40;;;4.83;;
68583;SDS011;55557;49.220;11.150;2022-12-26T10:32:26;7.77;;;4.80;;
68583;SDS011;55557;49.220;11.150;2022-12-26T10:34:55;6.37;;;4.77;;
68583;SDS011;55557;49.220;11.150;2022-12-26T10:37:23;7.20;;;4.70;;
68583;SDS011;55557;49.220;11.150;2022-12-26T10:39:52;9.40;;;5.67;;
68583;SDS011;55557;49.220;11.150;2022-12-26T10:42:41;9.00;;;5.93;;
68583;SDS011;55557;49.220;11.150;2022-12-26T10:45:16;8.87;;;5.13;;
68583;SDS011;55557;49.220;11.150;2022-12-26T10:47:46;10.00;;;6.67;;
68583;SDS011;55557;49.220;11.150;2022-12-26T10:50:18;11.30;;;6.97;;
68583;SDS011;55557;49.220;11.150;2022-12-26T10:52:45;11.97;;;7.83;;
68583;SDS011;55557;49.220;11.150;2022-12-26T10:55:15;10.93;;;8.10;;
68583;SDS011;55557;49.220;11.150;2022-12-26T10:57:43;12.13;;;7.13;;
68583;SDS011;55557;49.220;11.150;2022-12-26T11:00:13;8.00;;;6.13;;
68583;SDS011;55557;49.220;11.150;2022-12-26T11:02:41;7.00;;;5.70;;
68583;SDS011;55557;49.220;11.150;2022-12-26T11:05:09;9.23;;;6.20;;
68583;SDS011;55557;49.220;11.150;2022-12-26T11:07:37;9.33;;;6.40;;
68583;SDS011;55557;49.220;11.150;2022-12-26T11:10:04;8.57;;;6.13;;
68583;SDS011;55557;49.220;11.150;2022-12-26T11:12:37;8.00;;;6.10;;
68583;SDS011;55557;49.220;11.150;2022-12-26T11:15:06;9.83;;;6.87;;
68583;SDS011;55557;49.220;11.150;2022-12-26T11:17:33;10.20;;;7.03;;
68583;SDS011;55557;49.220;11.150;2022-12-26T11:20:17;12.90;;;8.27;;
68583;SDS011;55557;49.220;11.150;2022-12-26T11:22:46;10.23;;;6.30;;
68583;SDS011;55557;49.220;11.150;2022-12-26T11:27:39;9.27;;;5.83;;
68583;SDS011;55557;49.220;11.150;2022-12-26T11:32:48;10.97;;;7.23;;
68583;SDS011;55557;49.220;11.150;2022-12-26T11:35:19;9.27;;;6.50;;
68583;SDS011;55557;49.220;11.150;2022-12-26T11:37:46;11.80;;;7.37;;
68583;SDS011;55557;49.220;11.150;2022-12-26T11:40:16;11.13;;;7.17;;
68583;SDS011;55557;49.220;11.150;2022-12-26T11:42:47;10.00;;;7.27;;
68583;SDS011;55557;49.220;11.150;2022-12-26T11:45:14;9.67;;;7.17;;
68583;SDS011;55557;49.220;11.150;2022-12-26T11:47:45;12.60;;;7.03;;
68583;SDS011;55557;49.220;11.150;2022-12-26T11:50:12;11.17;;;7.37;;
68583;SDS011;55557;49.220;11.150;2022-12-26T11:52:52;12.90;;;7.30;;
68583;SDS011;55557;49.220;11.150;2022-12-26T12:00:39;9.73;;;6.50;;
68583;SDS011;55557;49.220;11.150;2022-12-26T12:03:10;10.80;;;6.30;;
68583;SDS011;55557;49.220;11.150;2022-12-26T12:11:00;12.13;;;6.00;;
68583;SDS011;55557;49.220;11.150;2022-12-26T12:16:14;11.00;;;6.07;;
68583;SDS011;55557;49.220;11.150;2022-12-26T12:31:39;10.70;;;6.30;;
68583;SDS011;55557;49.220;11.150;2022-12-26T12:34:12;7.10;;;4.97;;
68583;SDS011;55557;49.220;11.150;2022-12-26T12:42:21;8.03;;;5.07;;
68583;SDS011;55557;49.220;11.150;2022-12-26T12:57:22;10.23;;;7.20;;
68583;SDS011;55557;49.220;11.150;2022-12-26T13:00:02;9.63;;;5.97;;
68583;SDS011;55557;49.220;11.150;2022-12-26T13:02:48;6.63;;;4.60;;
68583;SDS011;55557;49.220;11.150;2022-12-26T13:07:44;8.90;;;4.57;;
68583;SDS011;55557;49.220;11.150;2022-12-26T13:10:44;7.97;;;4.83;;
68583;SDS011;55557;49.220;11.150;2022-12-26T13:13:14;6.63;;;4.60;;
68583;SDS011;55557;49.220;11.150;2022-12-26T13:15:43;6.00;;;3.80;;
68583;SDS011;55557;49.220;11.150;2022-12-26T13:20:49;6.30;;;3.87;;
68583;SDS011;55557;49.220;11.150;2022-12-26T13:23:18;5.07;;;3.20;;
68583;SDS011;55557;49.220;11.150;2022-12-26T13:26:16;5.20;;;3.63;;
68583;SDS011;55557;49.220;11.150;2022-12-26T13:31:36;4.67;;;3.30;;
68583;SDS011;55557;49.220;11.150;2022-12-26T13:34:03;2.80;;;2.60;;
68583;SDS011;55557;49.220;11.150;2022-12-26T13:36:34;4.33;;;3.30;;
68583;SDS011;55557;49.220;11.150;2022-12-26T13:41:26;3.53;;;2.90;;
68583;SDS011;55557;49.220;11.150;2022-12-26T13:49:24;3.87;;;3.23;;
68583;SDS011;55557;49.220;11.150;2022-12-26T13:51:52;4.30;;;3.03;;
68583;SDS011;55557;49.220;11.150;2022-12-26T13:54:19;3.53;;;2.60;;
68583;SDS011;55557;49.220;11.150;2022-12-26T13:59:25;3.67;;;2.20;;
68583;SDS011;55557;49.220;11.150;2022-12-26T14:02:02;3.37;;;2.20;;
68583;SDS011;55557;49.220;11.150;2022-12-26T14:07:29;2.63;;;2.20;;
68583;SDS011;55557;49.220;11.150;2022-12-26T14:15:23;2.40;;;2.00;;
68583;SDS011;55557;49.220;11.150;2022-12-26T14:20:41;4.23;;;1.67;;
68583;SDS011;55557;49.220;11.150;2022-12-26T14:23:18;3.17;;;1.87;;
68583;SDS011;55557;49.220;11.150;2022-12-26T14:25:54;1.93;;;1.50;;
68583;SDS011;55557;49.220;11.150;2022-12-26T14:36:41;4.07;;;1.43;;
68583;SDS011;55557;49.220;11.150;2022-12-26T14:44:40;3.70;;;2.27;;
68583;SDS011;55557;49.220;11.150;2022-12-26T14:47:08;2.47;;;2.20;;
68583;SDS011;55557;49.220;11.150;2022-12-26T14:49:35;2.27;;;1.90;;
68583;SDS011;55557;49.220;11.150;2022-12-26T14:54:47;2.97;;;2.33;;
68583;SDS011;55557;49.220;11.150;2022-12-26T15:02:42;2.73;;;2.47;;
68583;SDS011;55557;49.220;11.150;2022-12-26T15:05:10;2.30;;;2.10;;
68583;SDS011;55557;49.220;11.150;2022-12-26T15:10:27;2.60;;;2.17;;
68583;SDS011;55557;49.220;11.150;2022-12-26T15:21:45;6.80;;;4.20;;
68583;SDS011;55557;49.220;11.150;2022-12-26T15:23:52;8.17;;;4.90;;
68583;SDS011;55557;49.220;11.150;2022-12-26T15:29:02;9.47;;;4.70;;
68583;SDS011;55557;49.220;11.150;2022-12-26T15:31:41;7.13;;;2.97;;
68583;SDS011;55557;49.220;11.150;2022-12-26T15:36:42;3.07;;;2.47;;
68583;SDS011;55557;49.220;11.150;2022-12-26T15:50:16;6.37;;;3.30;;
68583;SDS011;55557;49.220;11.150;2022-12-26T15:52:50;3.07;;;2.40;;
68583;SDS011;55557;49.220;11.150;2022-12-26T15:55:29;3.90;;;2.70;;
68583;SDS011;55557;49.220;11.150;2022-12-26T15:58:46;2.60;;;2.10;;
68583;SDS011;55557;49.220;11.150;2022-12-26T16:00:51;3.13;;;2.20;;
68583;SDS011;55557;49.220;11.150;2022-12-26T16:11:20;3.57;;;2.20;;
68583;SDS011;55557;49.220;11.150;2022-12-26T16:13:48;5.70;;;3.43;;
68583;SDS011;55557;49.220;11.150;2022-12-26T16:16:21;3.53;;;2.67;;
68583;SDS011;55557;49.220;11.150;2022-12-26T16:18:47;3.03;;;2.20;;
68583;SDS011;55557;49.220;11.150;2022-12-26T16:21:13;2.60;;;2.27;;
68583;SDS011;55557;49.220;11.150;2022-12-26T16:24:00;4.50;;;2.47;;
68583;SDS011;55557;49.220;11.150;2022-12-26T16:26:28;3.67;;;2.03;;
68583;SDS011;55557;49.220;11.150;2022-12-26T16:28:55;1.63;;;1.53;;
68583;SDS011;55557;49.220;11.150;2022-12-26T16:31:23;3.40;;;2.50;;
68583;SDS011;55557;49.220;11.150;2022-12-26T16:33:50;7.33;;;3.83;;
68583;SDS011;55557;49.220;11.150;2022-12-26T16:36:20;4.17;;;2.13;;
68583;SDS011;55557;49.220;11.150;2022-12-26T16:38:46;8.70;;;2.20;;
68583;SDS011;55557;49.220;11.150;2022-12-26T16:41:23;2.87;;;2.00;;
68583;SDS011;55557;49.220;11.150;2022-12-26T16:43:50;11.70;;;7.17;;
68583;SDS011;55557;49.220;11.150;2022-12-26T16:46:18;10.57;;;6.50;;
68583;SDS011;55557;49.220;11.150;2022-12-26T16:48:53;5.90;;;3.80;;
68583;SDS011;55557;49.220;11.150;2022-12-26T16:51:42;5.83;;;3.30;;
68583;SDS011;55557;49.220;11.150;2022-12-26T16:54:14;7.30;;;4.17;;
68583;SDS011;55557;49.220;11.150;2022-12-26T16:56:40;4.37;;;2.67;;
68583;SDS011;55557;49.220;11.150;2022-12-26T16:59:14;4.57;;;2.43;;
68583;SDS011;55557;49.220;11.150;2022-12-26T17:01:40;5.47;;;3.20;;
68583;SDS011;55557;49.220;11.150;2022-12-26T17:04:17;3.77;;;2.50;;
68583;SDS011;55557;49.220;11.150;2022-12-26T17:06:53;3.37;;;2.50;;
68583;SDS011;55557;49.220;11.150;2022-12-26T17:09:21;4.33;;;2.70;;
68583;SDS011;55557;49.220;11.150;2022-12-26T17:11:52;7.13;;;3.07;;
68583;SDS011;55557;49.220;11.150;2022-12-26T17:14:20;3.50;;;2.57;;
68583;SDS011;55557;49.220;11.150;2022-12-26T17:16:50;3.33;;;2.13;;
68583;SDS011;55557;49.220;11.150;2022-12-26T17:19:20;3.33;;;2.50;;
68583;SDS011;55557;49.220;11.150;2022-12-26T17:22:18;3.70;;;2.77;;
68583;SDS011;55557;49.220;11.150;2022-12-26T17:24:43;4.77;;;3.20;;
68583;SDS011;55557;49.220;11.150;2022-12-26T17:27:19;5.07;;;3.70;;
68583;SDS011;55557;49.220;11.150;2022-12-26T17:29:57;6.60;;;3.80;;
68583;SDS011;55557;49.220;11.150;2022-12-26T17:32:26;3.83;;;3.17;;
68583;SDS011;55557;49.220;11.150;2022-12-26T17:34:52;7.47;;;4.80;;
68583;SDS011;55557;49.220;11.150;2022-12-26T17:37:22;4.93;;;4.00;;
68583;SDS011;55557;49.220;11.150;2022-12-26T17:39:59;3.83;;;2.87;;
68583;SDS011;55557;49.220;11.150;2022-12-26T17:42:27;4.87;;;3.20;;
68583;SDS011;55557;49.220;11.150;2022-12-26T17:44:53;3.87;;;3.20;;
68583;SDS011;55557;49.220;11.150;2022-12-26T17:47:24;5.10;;;3.40;;
68583;SDS011;55557;49.220;11.150;2022-12-26T17:49:51;5.93;;;4.23;;
68583;SDS011;55557;49.220;11.150;2022-12-26T17:52:20;4.77;;;3.03;;
68583;SDS011;55557;49.220;11.150;2022-12-26T17:54:47;8.67;;;4.77;;
68583;SDS011;55557;49.220;11.150;2022-12-26T17:57:24;8.07;;;4.27;;
68583;SDS011;55557;49.220;11.150;2022-12-26T17:59:50;7.50;;;4.90;;
68583;SDS011;55557;49.220;11.150;2022-12-26T18:02:17;12.20;;;4.80;;
68583;SDS011;55557;49.220;11.150;2022-12-26T18:04:43;7.50;;;3.77;;
68583;SDS011;55557;49.220;11.150;2022-12-26T18:07:11;5.77;;;3.27;;
68583;SDS011;55557;49.220;11.150;2022-12-26T18:09:37;6.63;;;3.63;;
68583;SDS011;55557;49.220;11.150;2022-12-26T18:12:03;3.93;;;3.00;;
68583;SDS011;55557;49.220;11.150;2022-12-26T18:14:29;5.63;;;3.10;;
68583;SDS011;55557;49.220;11.150;2022-12-26T18:16:55;5.63;;;3.53;;
68583;SDS011;55557;49.220;11.150;2022-12-26T18:19:21;5.43;;;3.70;;